createdAt,value
2022-12-01T00:00:01.863Z,101057.40
2022-12-01T00:02:37.424Z,101062.00
2022-12-01T00:05:11.273Z,101057.20
2022-12-01T00:07:44.013Z,101060.60
2022-12-01T00:10:29.726Z,101059.60
2022-12-01T00:13:05.106Z,101057.40
2022-12-01T00:15:39.678Z,101054.60
2022-12-01T00:18:12.256Z,101050.00
2022-12-01T00:20:45.344Z,101047.60
2022-12-01T00:23:17.907Z,101043.80
2022-12-01T00:25:50.710Z,101045.00
2022-12-01T00:28:23.386Z,101039.60
2022-12-01T00:30:57.464Z,101036.40
2022-12-01T00:33:30.385Z,101035.60
2022-12-01T00:36:08.360Z,101037.60
2022-12-01T00:38:41.600Z,101043.00
2022-12-01T00:41:14.466Z,101042.40
2022-12-01T00:43:47.009Z,101048.20
2022-12-01T00:46:20.089Z,101047.40
2022-12-01T00:48:52.792Z,101049.20
2022-12-01T00:51:25.336Z,101051.80
2022-12-01T00:53:57.971Z,101053.80
2022-12-01T00:56:30.655Z,101055.00
2022-12-01T00:59:03.952Z,101057.40
2022-12-01T01:01:37.740Z,101059.80
2022-12-01T01:04:11.211Z,101056.20
2022-12-01T01:06:44.573Z,101065.60
2022-12-01T01:09:18.660Z,101062.00
2022-12-01T01:11:51.342Z,101062.20
2022-12-01T01:14:24.659Z,101062.20
2022-12-01T01:16:57.262Z,101062.40
2022-12-01T01:19:29.665Z,101066.40
2022-12-01T01:22:02.368Z,101068.80
2022-12-01T01:24:35.086Z,101070.60
2022-12-01T01:27:07.693Z,101069.80
2022-12-01T01:29:40.703Z,101068.40
2022-12-01T01:32:13.400Z,101066.60
2022-12-01T01:34:46.405Z,101069.80
2022-12-01T01:37:19.374Z,101073.20
2022-12-01T01:39:51.853Z,101071.20
2022-12-01T01:42:24.528Z,101071.60
2022-12-01T01:44:59.699Z,101069.60
2022-12-01T01:47:37.299Z,101072.40
2022-12-01T01:50:14.898Z,101071.40
2022-12-01T01:52:53.273Z,101071.40
2022-12-01T01:55:26.662Z,101072.00
2022-12-01T01:58:00.271Z,101070.60
2022-12-01T02:00:33.226Z,101072.00
2022-12-01T02:03:07.134Z,101068.60
2022-12-01T02:05:41.434Z,101068.00
2022-12-01T02:08:14.696Z,101065.00
2022-12-01T02:11:12.540Z,101066.40
2022-12-01T02:13:57.442Z,101066.20
2022-12-01T02:16:41.613Z,101056.80
2022-12-01T02:19:44.047Z,101056.80
2022-12-01T02:22:30.346Z,101055.00
2022-12-01T02:25:22.760Z,101056.40
2022-12-01T02:28:33.237Z,101056.40
2022-12-01T02:31:15.073Z,101060.80
2022-12-01T02:33:58.299Z,101058.60
2022-12-01T02:36:43.037Z,101056.20
2022-12-01T02:39:23.502Z,101052.40
2022-12-01T02:42:05.686Z,101054.00
2022-12-01T02:44:44.847Z,101054.80
2022-12-01T02:47:20.655Z,101050.20
2022-12-01T02:49:58.675Z,101049.20
2022-12-01T02:52:31.692Z,101053.20
2022-12-01T02:55:04.464Z,101053.00
2022-12-01T02:57:37.606Z,101056.20
2022-12-01T03:00:14.254Z,101053.20
2022-12-01T03:03:09.440Z,101055.60
2022-12-01T03:05:52.318Z,101050.60
2022-12-01T03:08:34.565Z,101048.60
2022-12-01T03:11:07.685Z,101041.60
2022-12-01T03:13:49.125Z,101041.20
2022-12-01T03:16:31.894Z,101043.20
2022-12-01T03:19:11.814Z,101038.20
2022-12-01T03:21:51.123Z,101040.80
2022-12-01T03:24:29.512Z,101038.00
2022-12-01T03:27:05.513Z,101036.80
2022-12-01T03:29:44.825Z,101032.20
2022-12-01T03:32:25.176Z,101031.60
2022-12-01T03:35:05.674Z,101028.60
2022-12-01T03:37:46.134Z,101027.40
2022-12-01T03:40:27.362Z,101029.40
2022-12-01T03:43:04.989Z,101029.40
2022-12-01T03:45:47.519Z,101031.00
2022-12-01T03:48:21.548Z,101025.80
2022-12-01T03:51:07.804Z,101029.20
2022-12-01T03:53:53.011Z,101034.20
2022-12-01T03:56:31.994Z,101032.60
2022-12-01T03:59:09.016Z,101034.00
2022-12-01T04:01:42.072Z,101035.40
2022-12-01T04:04:16.712Z,101038.20
2022-12-01T04:06:52.084Z,101036.40
2022-12-01T04:09:25.270Z,101041.40
2022-12-01T04:12:15.342Z,101032.60
2022-12-01T04:14:48.035Z,101035.80
2022-12-01T04:17:20.923Z,101034.40
2022-12-01T04:19:53.701Z,101038.00
2022-12-01T04:22:27.452Z,101033.40
2022-12-01T04:25:00.015Z,101032.40
2022-12-01T04:27:32.665Z,101038.00
2022-12-01T04:30:06.454Z,101037.20
2022-12-01T04:32:44.626Z,101035.80
2022-12-01T04:35:17.564Z,101036.20
2022-12-01T04:37:50.655Z,101034.20
2022-12-01T04:40:23.440Z,101034.20
2022-12-01T04:42:57.142Z,101038.00
2022-12-01T04:45:29.799Z,101035.80
2022-12-01T04:48:02.505Z,101036.40
2022-12-01T04:50:35.594Z,101036.40
2022-12-01T04:53:08.568Z,101034.40
2022-12-01T04:55:42.450Z,101034.20
2022-12-01T04:58:15.376Z,101033.20
2022-12-01T05:00:48.135Z,101035.20
2022-12-01T05:03:20.734Z,101039.20
2022-12-01T05:06:04.308Z,101040.20
2022-12-01T05:08:37.185Z,101042.00
2022-12-01T05:11:12.389Z,101040.80
2022-12-01T05:13:48.658Z,101039.80
2022-12-01T05:16:24.188Z,101039.80
2022-12-01T05:19:13.171Z,101041.40
2022-12-01T05:21:49.346Z,101046.40
2022-12-01T05:24:23.541Z,101040.60
2022-12-01T05:26:56.531Z,101046.80
2022-12-01T05:29:29.140Z,101047.00
2022-12-01T05:32:03.241Z,101048.80
2022-12-01T05:34:35.864Z,101045.60
2022-12-01T05:37:08.583Z,101047.40
2022-12-01T05:39:41.404Z,101049.20
2022-12-01T05:42:14.046Z,101051.40
2022-12-01T05:44:46.904Z,101054.80
2022-12-01T05:47:19.342Z,101052.80
2022-12-01T05:49:52.128Z,101058.40
2022-12-01T05:52:24.642Z,101055.40
2022-12-01T05:54:57.141Z,101057.60
2022-12-01T05:57:29.964Z,101052.20
2022-12-01T06:00:02.598Z,101050.80
2022-12-01T06:02:43.912Z,101055.40
2022-12-01T06:05:16.898Z,101053.00
2022-12-01T06:07:49.909Z,101054.20
2022-12-01T06:10:23.466Z,101051.80
2022-12-01T06:12:56.039Z,101060.80
2022-12-01T06:15:28.925Z,101060.00
2022-12-01T06:18:03.129Z,101058.60
2022-12-01T06:20:35.788Z,101058.80
2022-12-01T06:23:08.501Z,101057.80
2022-12-01T06:25:41.350Z,101057.00
2022-12-01T06:28:14.271Z,101060.00
2022-12-01T06:31:10.913Z,101061.40
2022-12-01T06:33:43.694Z,101059.80
2022-12-01T06:36:16.514Z,101065.20
2022-12-01T06:38:49.063Z,101063.00
2022-12-01T06:41:21.605Z,101063.80
2022-12-01T06:43:54.928Z,101066.20
2022-12-01T06:46:27.553Z,101067.60
2022-12-01T06:49:00.390Z,101067.80
2022-12-01T06:51:34.418Z,101066.60
2022-12-01T06:54:07.808Z,101067.40
2022-12-01T06:56:40.464Z,101071.20
2022-12-01T06:59:14.388Z,101071.80
2022-12-01T07:01:47.467Z,101071.40
2022-12-01T07:04:20.209Z,101076.60
2022-12-01T07:06:52.939Z,101081.40
2022-12-01T07:09:25.567Z,101085.40
2022-12-01T07:11:58.099Z,101084.40
2022-12-01T07:14:31.677Z,101081.20
2022-12-01T07:17:04.618Z,101080.00
2022-12-01T07:19:37.629Z,101083.60
2022-12-01T07:22:10.252Z,101080.80
2022-12-01T07:24:43.022Z,101087.20
2022-12-01T07:27:16.027Z,101087.20
2022-12-01T07:29:48.823Z,101089.60
2022-12-01T07:32:21.588Z,101089.20
2022-12-01T07:34:54.373Z,101093.20
2022-12-01T07:37:27.049Z,101094.00
2022-12-01T07:39:59.934Z,101099.80
2022-12-01T07:42:32.516Z,101095.40
2022-12-01T07:45:05.704Z,101096.40
2022-12-01T07:47:38.384Z,101099.20
2022-12-01T07:50:13.200Z,101103.00
2022-12-01T07:52:45.652Z,101092.20
2022-12-01T07:55:19.003Z,101091.20
2022-12-01T07:57:51.746Z,101095.20
2022-12-01T08:00:25.774Z,101104.00
2022-12-01T08:02:58.937Z,101105.80
2022-12-01T08:05:31.731Z,101107.20
2022-12-01T08:08:04.785Z,101099.80
2022-12-01T08:10:38.504Z,101100.40
2022-12-01T08:13:17.139Z,101102.00
2022-12-01T08:15:50.682Z,101100.20
2022-12-01T08:18:23.653Z,101099.40
2022-12-01T08:20:59.245Z,101106.00
2022-12-01T08:23:32.086Z,101102.20
2022-12-01T08:26:09.887Z,101098.80
2022-12-01T08:28:43.407Z,101092.40
2022-12-01T08:31:19.747Z,101092.00
2022-12-01T08:33:53.926Z,101087.80
2022-12-01T08:36:27.816Z,101089.20
2022-12-01T08:39:00.606Z,101084.20
2022-12-01T08:41:33.314Z,101088.80
2022-12-01T08:44:06.155Z,101081.40
2022-12-01T08:46:39.653Z,101083.20
2022-12-01T08:49:12.197Z,101083.60
2022-12-01T08:51:45.317Z,101074.60
2022-12-01T08:54:17.847Z,101073.80
2022-12-01T08:56:50.757Z,101077.00
2022-12-01T08:59:23.398Z,101077.60
2022-12-01T09:01:58.046Z,101076.00
2022-12-01T09:04:32.453Z,101075.00
2022-12-01T09:07:05.158Z,101075.20
2022-12-01T09:09:39.671Z,101069.60
2022-12-01T09:12:13.905Z,101072.00
2022-12-01T09:14:49.560Z,101073.60
2022-12-01T09:17:23.653Z,101074.20
2022-12-01T09:19:56.411Z,101078.60
2022-12-01T09:22:29.245Z,101076.60
2022-12-01T09:25:02.091Z,101077.20
2022-12-01T09:27:34.941Z,101076.40
2022-12-01T09:30:10.525Z,101076.40
2022-12-01T09:32:42.996Z,101080.20
2022-12-01T09:35:18.601Z,101075.60
2022-12-01T09:37:54.809Z,101073.60
2022-12-01T09:40:32.817Z,101073.40
2022-12-01T09:43:16.575Z,101070.20
2022-12-01T09:45:57.765Z,101066.80
2022-12-01T09:48:42.739Z,101066.40
2022-12-01T09:51:19.033Z,101052.40
2022-12-01T09:53:56.632Z,101057.20
2022-12-01T09:56:33.392Z,101046.60
2022-12-01T09:59:09.206Z,101040.40
2022-12-01T10:01:47.845Z,101034.60
2022-12-01T10:04:27.168Z,101032.80
2022-12-01T10:07:05.331Z,101029.20
2022-12-01T10:09:47.983Z,101025.20
2022-12-01T10:12:28.020Z,101022.00
2022-12-01T10:15:16.524Z,101019.00
2022-12-01T10:18:06.960Z,101015.00
2022-12-01T10:20:50.201Z,101016.40
2022-12-01T10:23:40.710Z,101012.60
2022-12-01T10:26:23.454Z,101013.20
2022-12-01T10:29:12.304Z,101016.20
2022-12-01T10:31:55.843Z,101015.00
2022-12-01T10:34:33.322Z,101013.40
2022-12-01T10:37:07.709Z,101012.60
2022-12-01T10:39:45.062Z,101017.20
2022-12-01T10:42:28.310Z,101011.60
2022-12-01T10:45:07.408Z,101004.00
2022-12-01T10:48:00.444Z,101001.80
2022-12-01T10:50:33.213Z,100993.00
2022-12-01T10:53:06.932Z,100990.00
2022-12-01T10:55:47.838Z,100986.60
2022-12-01T10:58:22.196Z,100992.80
2022-12-01T11:01:06.004Z,100994.60
2022-12-01T11:03:41.481Z,100997.00
2022-12-01T11:06:15.321Z,100999.40
2022-12-01T11:08:56.002Z,100999.00
2022-12-01T11:11:36.002Z,100995.00
2022-12-01T11:14:20.801Z,100995.00
2022-12-01T11:16:54.969Z,101003.60
2022-12-01T11:19:34.843Z,100997.80
2022-12-01T11:22:25.233Z,100991.00
2022-12-01T11:25:07.017Z,100994.40
2022-12-01T11:27:51.718Z,100998.00
2022-12-01T11:30:30.691Z,100989.80
2022-12-01T11:33:05.430Z,100990.00
2022-12-01T11:35:46.997Z,100990.80
2022-12-01T11:38:30.154Z,100988.40
2022-12-01T11:41:03.272Z,100987.80
2022-12-01T11:43:42.620Z,100983.00
2022-12-01T11:46:29.314Z,100977.00
2022-12-01T11:49:04.721Z,100973.80
2022-12-01T11:51:38.353Z,100972.80
2022-12-01T11:54:19.508Z,100974.00
2022-12-01T11:57:25.408Z,100964.20
2022-12-01T11:59:48.341Z,100966.00
2022-12-01T12:02:37.141Z,100963.40
2022-12-01T12:05:57.578Z,100968.40
2022-12-01T12:09:04.710Z,100962.80
2022-12-01T12:11:55.153Z,100965.60
2022-12-01T12:14:59.941Z,100956.40
2022-12-01T12:17:54.200Z,100964.00
2022-12-01T12:20:49.107Z,100964.00
2022-12-01T12:23:50.168Z,100963.80
2022-12-01T12:26:27.947Z,100958.40
2022-12-01T12:29:23.651Z,100950.60
2022-12-01T12:32:14.351Z,100947.60
2022-12-01T12:35:04.273Z,100949.00
2022-12-01T12:37:59.893Z,100949.20
2022-12-01T12:40:52.275Z,100947.80
2022-12-01T12:43:38.213Z,100940.20
2022-12-01T12:46:14.452Z,100943.60
2022-12-01T12:49:19.723Z,100938.40
2022-12-01T12:52:05.040Z,100936.00
2022-12-01T12:54:49.059Z,100924.40
2022-12-01T12:57:31.567Z,100924.40
2022-12-01T13:00:13.998Z,100926.80
2022-12-01T13:02:51.821Z,100927.60
2022-12-01T13:05:30.254Z,100927.20
2022-12-01T13:08:10.015Z,100929.00
2022-12-01T13:10:49.110Z,100922.40
2022-12-01T13:13:32.296Z,100925.40
2022-12-01T13:16:13.416Z,100925.80
2022-12-01T13:18:52.302Z,100922.60
2022-12-01T13:21:25.901Z,100924.60
2022-12-01T13:23:58.685Z,100919.00
2022-12-01T13:26:33.036Z,100923.20
2022-12-01T13:29:14.418Z,100914.60
2022-12-01T13:31:50.939Z,100915.60
2022-12-01T13:34:35.124Z,100911.40
2022-12-01T13:37:08.845Z,100913.80
2022-12-01T13:39:45.741Z,100915.60
2022-12-01T13:42:27.912Z,100912.00
2022-12-01T13:45:08.356Z,100909.40
2022-12-01T13:47:54.459Z,100908.00
2022-12-01T13:51:05.326Z,100902.20
2022-12-01T13:53:40.128Z,100907.60
2022-12-01T13:56:45.917Z,100904.80
2022-12-01T13:59:57.511Z,100907.40
2022-12-01T14:02:32.238Z,100904.40
2022-12-01T14:05:56.426Z,100905.80
2022-12-01T14:08:32.066Z,100907.20
2022-12-01T14:11:09.880Z,100907.60
2022-12-01T14:13:54.515Z,100909.00
2022-12-01T14:16:46.336Z,100906.80
2022-12-01T14:19:34.805Z,100914.00
2022-12-01T14:22:32.020Z,100913.00
2022-12-01T14:25:07.781Z,100916.80
2022-12-01T14:27:45.340Z,100918.40
2022-12-01T14:31:04.770Z,100918.00
2022-12-01T14:33:55.133Z,100918.40
2022-12-01T14:36:39.247Z,100923.00
2022-12-01T14:39:20.119Z,100926.00
2022-12-01T14:41:57.666Z,100921.40
2022-12-01T14:44:37.501Z,100920.20
2022-12-01T14:47:20.695Z,100921.40
2022-12-01T14:50:00.824Z,100925.00
2022-12-01T14:52:39.359Z,100925.80
2022-12-01T14:55:24.237Z,100929.40
2022-12-01T14:58:06.492Z,100933.80
2022-12-01T15:00:50.117Z,100937.20
2022-12-01T15:03:27.617Z,100938.40
2022-12-01T15:06:03.605Z,100942.80
2022-12-01T15:08:43.565Z,100948.20
2022-12-01T15:11:26.770Z,100946.20
2022-12-01T15:14:00.583Z,100951.00
2022-12-01T15:16:43.374Z,100950.40
2022-12-01T15:19:33.501Z,100954.20
2022-12-01T15:22:13.537Z,100957.60
2022-12-01T15:24:47.573Z,100958.40
2022-12-01T15:27:32.511Z,100958.40
2022-12-01T15:30:07.745Z,100958.80
2022-12-01T15:32:43.315Z,100960.20
2022-12-01T15:35:23.837Z,100960.80
2022-12-01T15:37:57.772Z,100962.00
2022-12-01T15:43:32.761Z,100969.40
2022-12-01T15:46:15.370Z,100970.20
2022-12-01T15:48:48.549Z,100967.60
2022-12-01T15:51:28.910Z,100970.40
2022-12-01T15:54:04.803Z,100968.80
2022-12-01T15:56:42.382Z,100967.00
2022-12-01T15:59:31.326Z,100973.00
2022-12-01T16:02:17.591Z,100972.40
2022-12-01T16:05:00.423Z,100973.60
2022-12-01T16:08:11.710Z,100972.20
2022-12-01T16:10:36.186Z,100970.00
2022-12-01T16:13:48.084Z,100973.00
2022-12-01T16:16:42.552Z,100973.20
2022-12-01T16:19:33.632Z,100973.00
2022-12-01T16:22:20.120Z,100971.20
2022-12-01T16:24:56.355Z,100975.80
2022-12-01T16:27:31.721Z,100973.00
2022-12-01T16:30:21.376Z,100975.60
2022-12-01T16:33:01.359Z,100978.60
2022-12-01T16:35:35.933Z,100978.40
2022-12-01T16:38:20.805Z,100979.40
2022-12-01T16:40:55.779Z,100978.00
2022-12-01T16:43:30.498Z,100976.40
2022-12-01T16:46:07.431Z,100980.00
2022-12-01T16:48:40.544Z,100982.00
2022-12-01T16:51:17.273Z,100979.80
2022-12-01T16:53:56.894Z,100985.80
2022-12-01T16:56:29.881Z,100991.60
2022-12-01T16:59:02.850Z,100990.40
2022-12-01T17:01:35.937Z,100995.80
2022-12-01T17:04:08.921Z,100998.20
2022-12-01T17:06:41.772Z,100995.80
2022-12-01T17:09:14.459Z,100997.60
2022-12-01T17:11:47.081Z,100998.80
2022-12-01T17:14:19.769Z,100997.40
2022-12-01T17:16:52.394Z,100998.40
2022-12-01T17:19:24.806Z,100996.60
2022-12-01T17:21:58.320Z,100998.60
2022-12-01T17:24:31.291Z,101001.60
2022-12-01T17:27:03.872Z,101003.80
2022-12-01T17:29:39.483Z,100995.60
2022-12-01T17:32:14.657Z,101000.40
2022-12-01T17:34:47.755Z,101001.20
2022-12-01T17:37:21.350Z,101001.20
2022-12-01T17:39:54.129Z,101001.20
2022-12-01T17:42:26.633Z,101006.20
2022-12-01T17:44:59.202Z,101002.40
2022-12-01T17:47:32.069Z,101006.80
2022-12-01T17:50:05.065Z,101011.20
2022-12-01T17:52:38.189Z,101014.20
2022-12-01T17:55:12.482Z,101016.40
2022-12-01T17:57:45.161Z,101017.20
2022-12-01T18:00:20.970Z,101024.20
2022-12-01T18:02:53.737Z,101022.40
2022-12-01T18:05:26.418Z,101025.80
2022-12-01T18:07:59.052Z,101028.00
2022-12-01T18:10:31.773Z,101031.20
2022-12-01T18:13:04.624Z,101037.60
2022-12-01T18:15:40.447Z,101036.80
2022-12-01T18:18:13.036Z,101037.60
2022-12-01T18:20:46.921Z,101040.20
2022-12-01T18:23:20.528Z,101040.60
2022-12-01T18:25:53.146Z,101043.40
2022-12-01T18:28:25.720Z,101042.80
2022-12-01T18:31:03.662Z,101041.40
2022-12-01T18:33:38.023Z,101041.80
2022-12-01T18:36:17.504Z,101046.00
2022-12-01T18:38:51.106Z,101042.60
2022-12-01T18:41:24.079Z,101044.80
2022-12-01T18:43:57.350Z,101041.60
2022-12-01T18:46:30.563Z,101042.80
2022-12-01T18:49:04.799Z,101039.20
2022-12-01T18:51:40.224Z,101042.00
2022-12-01T18:54:16.522Z,101048.00
2022-12-01T18:56:55.080Z,101051.60
2022-12-01T18:59:28.029Z,101052.40
2022-12-01T19:02:00.721Z,101055.20
2022-12-01T19:04:33.617Z,101059.40
2022-12-01T19:07:06.286Z,101058.20
2022-12-01T19:09:40.604Z,101058.20
2022-12-01T19:12:13.582Z,101065.80
2022-12-01T19:14:46.043Z,101066.60
2022-12-01T19:17:18.484Z,101062.80
2022-12-01T19:19:51.387Z,101065.40
2022-12-01T19:22:24.199Z,101067.00
2022-12-01T19:24:57.760Z,101067.80
2022-12-01T19:27:31.108Z,101071.80
2022-12-01T19:30:03.630Z,101073.60
2022-12-01T19:32:36.693Z,101073.20
2022-12-01T19:35:10.967Z,101076.00
2022-12-01T19:37:43.821Z,101076.20
2022-12-01T19:40:18.118Z,101079.80
2022-12-01T19:42:50.715Z,101080.80
2022-12-01T19:45:24.629Z,101081.40
2022-12-01T19:47:57.291Z,101083.40
2022-12-01T19:50:30.173Z,101084.00
2022-12-01T19:53:02.983Z,101079.40
2022-12-01T19:55:36.783Z,101086.40
2022-12-01T19:58:09.598Z,101090.20
2022-12-01T20:00:42.178Z,101087.00
2022-12-01T20:03:14.717Z,101083.00
2022-12-01T20:05:47.194Z,101085.00
2022-12-01T20:08:19.768Z,101081.20
2022-12-01T20:10:52.833Z,101076.40
2022-12-01T20:13:25.905Z,101081.00
2022-12-01T20:16:04.630Z,101084.40
2022-12-01T20:18:38.637Z,101090.40
2022-12-01T20:21:16.397Z,101091.00
2022-12-01T20:23:51.896Z,101095.80
2022-12-01T20:26:30.190Z,101099.20
2022-12-01T20:29:06.414Z,101101.80
2022-12-01T20:31:39.711Z,101099.80
2022-12-01T20:34:18.940Z,101099.20
2022-12-01T20:36:52.068Z,101103.60
2022-12-01T20:39:24.907Z,101106.20
2022-12-01T20:41:57.483Z,101111.60
2022-12-01T20:44:30.065Z,101112.40
2022-12-01T20:47:02.867Z,101115.60
2022-12-01T20:49:35.860Z,101112.20
2022-12-01T20:52:09.112Z,101118.20
2022-12-01T20:54:42.795Z,101112.20
2022-12-01T20:57:15.406Z,101108.00
2022-12-01T20:59:47.932Z,101115.00
2022-12-01T21:02:20.622Z,101114.80
2022-12-01T21:04:57.650Z,101118.00
2022-12-01T21:07:31.520Z,101118.60
2022-12-01T21:10:04.966Z,101117.60
2022-12-01T21:12:56.577Z,101118.40
2022-12-01T21:15:32.379Z,101119.60
2022-12-01T21:18:13.874Z,101119.20
2022-12-01T21:20:50.211Z,101126.40
2022-12-01T21:23:22.759Z,101119.40
2022-12-01T21:25:56.038Z,101124.00
2022-12-01T21:28:30.955Z,101121.20
2022-12-01T21:31:15.195Z,101120.40
2022-12-01T21:33:47.920Z,101118.60
2022-12-01T21:36:22.567Z,101120.80
2022-12-01T21:39:12.793Z,101114.80
2022-12-01T21:41:45.626Z,101117.60
2022-12-01T21:44:21.567Z,101109.00
2022-12-01T21:46:59.077Z,101111.00
2022-12-01T21:49:40.766Z,101110.60
2022-12-01T21:52:22.855Z,101112.60
2022-12-01T21:54:55.759Z,101110.00
2022-12-01T21:57:43.139Z,101111.60
2022-12-01T22:00:41.529Z,101119.00
2022-12-01T22:03:35.530Z,101111.20
2022-12-01T22:06:29.833Z,101105.00
2022-12-01T22:09:25.971Z,101115.00
2022-12-01T22:12:01.210Z,101113.40
2022-12-01T22:14:38.037Z,101111.80
2022-12-01T22:17:22.218Z,101112.80
2022-12-01T22:20:02.296Z,101117.60
2022-12-01T22:22:36.667Z,101118.20
2022-12-01T22:25:29.534Z,101122.20
2022-12-01T22:28:03.559Z,101125.00
2022-12-01T22:30:36.238Z,101119.80
2022-12-01T22:33:20.487Z,101116.40
2022-12-01T22:35:54.831Z,101113.00
2022-12-01T22:38:36.132Z,101113.00
2022-12-01T22:41:14.312Z,101112.40
2022-12-01T22:43:55.071Z,101111.80
2022-12-01T22:46:35.408Z,101109.40
2022-12-01T22:49:25.412Z,101109.00
2022-12-01T22:52:03.524Z,101111.40
2022-12-01T22:54:43.815Z,101109.20
2022-12-01T22:57:36.737Z,101108.60
2022-12-01T23:00:23.300Z,101112.80
2022-12-01T23:03:00.034Z,101111.20
2022-12-01T23:05:34.493Z,101101.80
2022-12-01T23:08:17.286Z,101108.00
2022-12-01T23:10:49.937Z,101100.80
2022-12-01T23:13:25.968Z,101101.80
2022-12-01T23:15:59.966Z,101097.60
2022-12-01T23:18:34.317Z,101109.00
2022-12-01T23:21:08.345Z,101109.20
2022-12-01T23:23:42.069Z,101106.80
2022-12-01T23:26:14.752Z,101104.20
2022-12-01T23:28:47.402Z,101104.00
2022-12-01T23:31:20.104Z,101106.40
2022-12-01T23:33:53.049Z,101107.20
2022-12-01T23:36:29.446Z,101099.80
2022-12-01T23:39:11.390Z,101103.60
2022-12-01T23:41:46.996Z,101100.60
2022-12-01T23:44:25.174Z,101103.00
2022-12-01T23:47:00.260Z,101105.80
2022-12-01T23:49:36.280Z,101106.40
2022-12-01T23:52:16.591Z,101106.20
2022-12-01T23:54:50.111Z,101108.20
2022-12-01T23:57:26.356Z,101108.60
